Time;durP1;ratioP1;P1;durP2;ratioP2;P2;SDS_P1;SDS_P2;PMS_P1;PMS_P2;Temp;Humidity;BMP_temperature;BMP_pressure;BME280_temperature;BME280_humidity;BME280_pressure;Samples;Min_cycle;Max_cycle;Signal;HPM_P1;HPM_P2
2022/06/11 00:02:03;;;;;;;8.45;6.05;;;;;;;;;;5094359;28;20047;-72
2022/06/11 00:04:38;;;;;;;9.32;5.57;;;;;;;;;;5094463;28;20436;-71
2022/06/11 00:07:17;;;;;;;10.00;5.78;;;;;;;;;;5094312;28;20420;-66
2022/06/11 00:09:43;;;;;;;9.70;5.88;;;;;;;;;;5094297;28;20035;-69
2022/06/11 00:12:11;;;;;;;10.43;6.00;;;;;;;;;;5094088;28;20031;-68
2022/06/11 00:14:37;;;;;;;9.50;5.75;;;;;;;;;;5094155;28;20064;-70
2022/06/11 00:17:08;;;;;;;10.05;5.80;;;;;;;;;;5094112;28;20032;-68
2022/06/11 00:19:35;;;;;;;8.50;5.43;;;;;;;;;;5094449;28;20024;-67
2022/06/11 00:22:02;;;;;;;9.40;4.68;;;;;;;;;;5093857;28;20455;-68
2022/06/11 00:24:29;;;;;;;7.25;5.20;;;;;;;;;;5093941;28;20036;-67
2022/06/11 00:26:57;;;;;;;6.50;4.90;;;;;;;;;;5093978;28;20080;-69
2022/06/11 00:29:26;;;;;;;6.45;4.43;;;;;;;;;;5093911;28;20068;-70
2022/06/11 00:31:52;;;;;;;12.05;5.47;;;;;;;;;;5093520;28;20024;-71
2022/06/11 00:34:19;;;;;;;9.85;5.55;;;;;;;;;;5094023;28;20466;-72
2022/06/11 00:36:45;;;;;;;10.65;5.40;;;;;;;;;;5093808;28;20493;-68
2022/06/11 00:39:13;;;;;;;10.30;5.05;;;;;;;;;;5093826;28;20043;-67
2022/06/11 00:41:41;;;;;;;8.02;4.68;;;;;;;;;;5093509;28;20023;-74
2022/06/11 00:44:08;;;;;;;8.40;4.85;;;;;;;;;;5093608;28;20043;-71
2022/06/11 00:46:36;;;;;;;6.82;4.90;;;;;;;;;;5093666;28;20086;-69
2022/06/11 00:49:23;;;;;;;8.55;5.07;;;;;;;;;;5091901;28;20036;-69
2022/06/11 00:51:57;;;;;;;7.78;4.78;;;;;;;;;;5093062;28;20040;-70
2022/06/11 00:54:26;;;;;;;7.72;4.93;;;;;;;;;;5093330;28;20172;-67
2022/06/11 00:56:56;;;;;;;8.02;4.80;;;;;;;;;;5078839;28;20036;-69
2022/06/11 00:59:31;;;;;;;9.07;5.50;;;;;;;;;;5073126;28;20033;-68
2022/06/11 01:01:57;;;;;;;11.27;5.00;;;;;;;;;;5072674;28;20033;-67
2022/06/11 01:04:47;;;;;;;6.40;4.90;;;;;;;;;;5072656;28;20078;-69
2022/06/11 01:07:24;;;;;;;7.63;4.97;;;;;;;;;;5067369;28;20110;-68
2022/06/11 01:10:09;;;;;;;7.22;5.18;;;;;;;;;;5072405;28;20388;-70
2022/06/11 01:12:57;;;;;;;7.82;4.65;;;;;;;;;;5071553;28;20029;-70
2022/06/11 01:15:54;;;;;;;10.98;5.18;;;;;;;;;;5072743;28;20036;-68
2022/06/11 01:18:39;;;;;;;8.13;4.45;;;;;;;;;;5072302;28;20487;-67
2022/06/11 01:21:18;;;;;;;7.00;3.85;;;;;;;;;;5072484;28;20151;-68
2022/06/11 01:23:54;;;;;;;10.48;3.83;;;;;;;;;;5072499;28;20407;-69
2022/06/11 01:27:01;;;;;;;9.38;4.45;;;;;;;;;;5072728;28;20467;-72
2022/06/11 01:29:34;;;;;;;6.85;3.55;;;;;;;;;;5073673;28;20509;-70
2022/06/11 01:32:17;;;;;;;7.93;3.97;;;;;;;;;;5090025;28;20051;-70
2022/06/11 01:34:55;;;;;;;8.10;3.95;;;;;;;;;;5092540;28;20036;-70
2022/06/11 01:37:31;;;;;;;14.02;4.20;;;;;;;;;;5092556;28;20396;-69
2022/06/11 01:40:05;;;;;;;12.77;3.72;;;;;;;;;;5092510;28;20071;-65
2022/06/11 01:42:40;;;;;;;12.95;4.80;;;;;;;;;;5092453;28;20059;-69
2022/06/11 01:45:27;;;;;;;10.65;4.32;;;;;;;;;;5092005;28;20036;-73
2022/06/11 01:47:56;;;;;;;7.20;4.22;;;;;;;;;;5091810;28;20028;-70
2022/06/11 01:50:25;;;;;;;7.85;4.78;;;;;;;;;;5092381;28;20103;-69
2022/06/11 01:53:21;;;;;;;9.00;5.18;;;;;;;;;;5092103;28;20032;-68
2022/06/11 01:56:46;;;;;;;11.50;5.32;;;;;;;;;;5092451;28;20035;-72
2022/06/11 01:59:17;;;;;;;9.80;5.25;;;;;;;;;;5060094;28;20059;-71
2022/06/11 02:01:55;;;;;;;13.88;6.03;;;;;;;;;;5092167;28;20047;-70
2022/06/11 02:05:02;;;;;;;14.30;5.47;;;;;;;;;;5092081;28;20047;-67
2022/06/11 02:07:47;;;;;;;9.23;5.40;;;;;;;;;;5092320;28;20094;-70
2022/06/11 02:10:30;;;;;;;11.27;5.00;;;;;;;;;;5091819;28;20038;-66
2022/06/11 02:13:05;;;;;;;13.73;4.82;;;;;;;;;;5091024;28;20064;-68
2022/06/11 02:15:43;;;;;;;9.02;4.35;;;;;;;;;;5087349;28;20426;-67
2022/06/11 02:18:15;;;;;;;13.18;5.00;;;;;;;;;;5091784;28;20043;-67
2022/06/11 02:21:09;;;;;;;9.73;4.25;;;;;;;;;;5091730;28;20048;-66
2022/06/11 02:23:49;;;;;;;;;;;;;;;;;;5094659;28;20034;-69
2022/06/11 02:26:23;;;;;;;14.55;4.70;;;;;;;;;;5095721;28;20289;-69
2022/06/11 02:28:51;;;;;;;9.90;4.20;;;;;;;;;;5094630;28;20039;-67
2022/06/11 02:31:23;;;;;;;8.88;5.00;;;;;;;;;;5094791;28;20039;-67
2022/06/11 02:33:50;;;;;;;10.95;4.65;;;;;;;;;;5095838;28;20483;-66
2022/06/11 02:36:22;;;;;;;14.23;4.95;;;;;;;;;;5095578;28;20032;-66
2022/06/11 02:38:48;;;;;;;8.93;5.25;;;;;;;;;;5095891;28;20056;-66
2022/06/11 02:41:19;;;;;;;15.77;5.63;;;;;;;;;;5095537;28;20055;-66
2022/06/11 02:43:45;;;;;;;14.40;4.55;;;;;;;;;;5095518;28;20390;-66
2022/06/11 02:48:56;;;;;;;11.10;4.75;;;;;;;;;;5095676;28;20032;-66
2022/06/11 02:51:25;;;;;;;7.65;4.20;;;;;;;;;;5095578;28;20073;-67
2022/06/11 02:53:51;;;;;;;13.30;4.95;;;;;;;;;;5095661;28;20063;-66
2022/06/11 02:56:17;;;;;;;9.70;4.20;;;;;;;;;;5095660;28;20020;-66
2022/06/11 02:58:43;;;;;;;8.68;3.90;;;;;;;;;;5095617;28;20036;-66
2022/06/11 03:01:09;;;;;;;5.38;3.50;;;;;;;;;;5095005;28;20371;-66
2022/06/11 03:03:36;;;;;;;7.63;3.70;;;;;;;;;;5091375;28;20087;-65
2022/06/11 03:06:03;;;;;;;8.38;3.42;;;;;;;;;;5095201;28;20111;-66
2022/06/11 03:08:30;;;;;;;5.28;3.60;;;;;;;;;;5095464;28;20035;-68
2022/06/11 03:10:57;;;;;;;6.65;4.18;;;;;;;;;;5095013;28;20028;-67
2022/06/11 03:13:24;;;;;;;10.07;4.32;;;;;;;;;;5094903;28;20490;-67
2022/06/11 03:15:50;;;;;;;8.25;4.20;;;;;;;;;;5095254;28;20032;-70
2022/06/11 03:18:16;;;;;;;15.77;4.80;;;;;;;;;;5095124;28;20024;-68
2022/06/11 03:20:43;;;;;;;14.18;4.80;;;;;;;;;;5094917;28;20101;-68
2022/06/11 03:23:09;;;;;;;13.38;4.55;;;;;;;;;;5094670;28;20510;-70
2022/06/11 03:25:36;;;;;;;17.35;4.32;;;;;;;;;;5076722;28;20035;-71
2022/06/11 03:28:11;;;;;;;25.33;4.55;;;;;;;;;;5074672;28;20036;-70
2022/06/11 03:30:38;;;;;;;23.35;3.97;;;;;;;;;;5074659;28;20036;-70
2022/06/11 03:33:05;;;;;;;19.90;4.15;;;;;;;;;;5074490;28;20454;-72
2022/06/11 03:35:31;;;;;;;15.77;4.15;;;;;;;;;;5073960;28;20440;-68
2022/06/11 03:37:57;;;;;;;21.50;4.38;;;;;;;;;;5090944;28;20024;-68
2022/06/11 03:40:24;;;;;;;23.08;5.35;;;;;;;;;;5074412;28;20040;-68
2022/06/11 03:42:50;;;;;;;22.98;4.97;;;;;;;;;;5074244;28;20031;-71
2022/06/11 03:45:16;;;;;;;16.30;4.03;;;;;;;;;;5074097;28;20039;-67
2022/06/11 03:47:43;;;;;;;29.92;4.40;;;;;;;;;;5073804;28;20371;-68
2022/06/11 03:50:17;;;;;;;19.13;4.40;;;;;;;;;;5074164;28;20036;-69
2022/06/11 03:52:43;;;;;;;16.30;4.88;;;;;;;;;;5074276;28;20123;-70
2022/06/11 03:55:09;;;;;;;19.67;4.45;;;;;;;;;;5074128;28;20794;-68
2022/06/11 03:57:35;;;;;;;24.55;4.88;;;;;;;;;;5073991;28;20403;-69
2022/06/11 04:00:04;;;;;;;34.17;5.22;;;;;;;;;;5073741;28;20017;-68
2022/06/11 04:02:34;;;;;;;30.90;6.32;;;;;;;;;;5073613;28;20048;-67
2022/06/11 04:05:00;;;;;;;29.80;6.07;;;;;;;;;;5073785;28;20036;-68
2022/06/11 04:07:26;;;;;;;22.73;6.03;;;;;;;;;;5073714;28;20098;-69
2022/06/11 04:09:52;;;;;;;31.65;7.70;;;;;;;;;;5074134;28;20025;-68
2022/06/11 04:12:18;;;;;;;15.95;6.00;;;;;;;;;;5073864;28;20108;-66
2022/06/11 04:14:47;;;;;;;24.73;6.05;;;;;;;;;;5074026;28;20024;-66
2022/06/11 04:17:19;;;;;;;16.10;6.05;;;;;;;;;;5073834;28;20063;-66
2022/06/11 04:19:47;;;;;;;20.20;6.15;;;;;;;;;;5073902;28;20043;-66
2022/06/11 04:22:13;;;;;;;15.88;6.25;;;;;;;;;;5073446;28;20148;-65
2022/06/11 04:24:40;;;;;;;14.13;4.97;;;;;;;;;;5073732;28;20036;-65
2022/06/11 04:27:08;;;;;;;17.90;5.63;;;;;;;;;;5073323;28;20029;-65
2022/06/11 04:29:37;;;;;;;18.75;6.00;;;;;;;;;;5073188;28;20101;-65
2022/06/11 04:32:06;;;;;;;17.48;5.90;;;;;;;;;;5073555;28;20444;-65
2022/06/11 04:34:32;;;;;;;15.13;5.00;;;;;;;;;;5073352;28;20032;-66
2022/06/11 04:36:58;;;;;;;14.95;4.97;;;;;;;;;;5073341;28;20031;-66
2022/06/11 04:39:28;;;;;;;14.93;5.30;;;;;;;;;;5089937;28;20036;-66
2022/06/11 04:41:55;;;;;;;9.60;5.90;;;;;;;;;;5073392;28;20032;-66
2022/06/11 04:44:21;;;;;;;16.45;5.20;;;;;;;;;;5073260;28;20033;-65
2022/06/11 04:46:47;;;;;;;25.67;6.13;;;;;;;;;;5072075;28;20394;-67
2022/06/11 04:49:14;;;;;;;14.27;4.50;;;;;;;;;;5074948;28;20525;-67
2022/06/11 04:51:41;;;;;;;12.70;5.00;;;;;;;;;;5093049;28;20056;-65
2022/06/11 04:54:07;;;;;;;15.60;4.93;;;;;;;;;;5093296;28;20028;-67
2022/06/11 04:56:33;;;;;;;12.73;4.60;;;;;;;;;;5092442;28;20028;-66
2022/06/11 04:58:59;;;;;;;11.70;4.68;;;;;;;;;;5086602;28;20028;-66
2022/06/11 05:01:26;;;;;;;23.83;5.65;;;;;;;;;;5080732;28;20035;-68
2022/06/11 05:03:53;;;;;;;17.75;5.13;;;;;;;;;;5071632;28;20043;-70
2022/06/11 05:06:23;;;;;;;14.40;4.68;;;;;;;;;;5086358;28;20382;-67
2022/06/11 05:08:49;;;;;;;25.90;5.38;;;;;;;;;;5091902;28;20544;-66
2022/06/11 05:11:16;;;;;;;21.83;4.95;;;;;;;;;;5092129;28;20485;-67
2022/06/11 05:13:41;;;;;;;12.45;4.07;;;;;;;;;;5091823;28;20025;-69
2022/06/11 05:16:08;;;;;;;11.27;4.28;;;;;;;;;;5092292;28;20028;-68
2022/06/11 05:18:35;;;;;;;13.55;4.22;;;;;;;;;;5093534;28;20047;-67
2022/06/11 05:21:01;;;;;;;16.70;4.75;;;;;;;;;;5093815;28;20044;-69
2022/06/11 05:23:27;;;;;;;13.93;4.10;;;;;;;;;;5093840;28;20032;-67
2022/06/11 05:25:53;;;;;;;10.65;4.13;;;;;;;;;;5093737;28;20038;-71
2022/06/11 05:28:28;;;;;;;13.48;4.55;;;;;;;;;;5093579;28;20489;-69
2022/06/11 05:30:56;;;;;;;15.93;5.05;;;;;;;;;;5093473;28;20047;-68
2022/06/11 05:33:23;;;;;;;11.15;4.65;;;;;;;;;;5093423;28;20027;-65
2022/06/11 05:35:50;;;;;;;17.25;5.30;;;;;;;;;;5093242;28;20040;-68
2022/06/11 05:38:19;;;;;;;10.15;4.35;;;;;;;;;;5093397;28;20035;-69
2022/06/11 05:40:48;;;;;;;17.50;4.90;;;;;;;;;;5092734;28;20036;-66
2022/06/11 05:43:16;;;;;;;16.42;4.85;;;;;;;;;;5092858;28;20143;-66
2022/06/11 05:45:46;;;;;;;17.95;4.68;;;;;;;;;;5093157;28;20024;-67
2022/06/11 05:48:14;;;;;;;15.52;4.95;;;;;;;;;;5091545;28;20081;-66
2022/06/11 05:50:43;;;;;;;16.05;5.10;;;;;;;;;;5093236;28;20024;-68
2022/06/11 05:53:11;;;;;;;15.07;5.20;;;;;;;;;;5093203;28;20085;-69
2022/06/11 05:55:39;;;;;;;13.73;5.00;;;;;;;;;;5092891;28;20028;-66
2022/06/11 05:58:11;;;;;;;14.23;5.10;;;;;;;;;;5092384;28;20042;-67
2022/06/11 06:00:38;;;;;;;16.30;5.40;;;;;;;;;;5090810;28;20095;-65
2022/06/11 06:03:04;;;;;;;11.98;5.22;;;;;;;;;;5088946;28;20024;-70
2022/06/11 06:05:31;;;;;;;21.33;5.75;;;;;;;;;;5093009;28;20115;-67
2022/06/11 06:07:57;;;;;;;15.50;4.95;;;;;;;;;;5092890;28;20467;-67
2022/06/11 06:10:23;;;;;;;12.88;5.00;;;;;;;;;;5092653;28;20478;-66
2022/06/11 06:12:50;;;;;;;21.83;5.38;;;;;;;;;;5092602;28;20466;-66
2022/06/11 06:15:22;;;;;;;15.05;5.65;;;;;;;;;;5092547;28;20028;-67
2022/06/11 06:17:49;;;;;;;17.27;5.53;;;;;;;;;;5092386;28;20028;-68
2022/06/11 06:20:16;;;;;;;14.27;4.97;;;;;;;;;;5092750;28;20378;-69
2022/06/11 06:22:43;;;;;;;9.38;4.90;;;;;;;;;;5092163;28;20471;-67
2022/06/11 06:25:14;;;;;;;9.02;4.60;;;;;;;;;;5092794;28;20077;-67
2022/06/11 06:27:40;;;;;;;10.93;4.60;;;;;;;;;;5092664;28;20038;-66
2022/06/11 06:30:06;;;;;;;15.32;4.47;;;;;;;;;;5092634;28;20032;-67
2022/06/11 06:32:32;;;;;;;8.90;3.67;;;;;;;;;;5092008;28;20040;-69
2022/06/11 06:34:58;;;;;;;7.18;3.70;;;;;;;;;;5092780;28;20036;-68
2022/06/11 06:37:24;;;;;;;6.68;3.55;;;;;;;;;;5088142;28;20028;-72
2022/06/11 06:39:49;;;;;;;5.18;3.70;;;;;;;;;;5092238;28;20025;-71
2022/06/11 06:42:16;;;;;;;11.50;3.78;;;;;;;;;;5092512;28;20075;-69
2022/06/11 06:44:45;;;;;;;11.23;4.00;;;;;;;;;;5092145;28;20028;-73
2022/06/11 06:47:11;;;;;;;7.40;3.65;;;;;;;;;;5092618;28;20046;-75
2022/06/11 06:49:37;;;;;;;5.47;3.45;;;;;;;;;;5091994;28;20103;-72
2022/06/11 06:52:03;;;;;;;6.43;3.05;;;;;;;;;;5091250;28;20032;-76
2022/06/11 06:54:30;;;;;;;7.78;3.70;;;;;;;;;;5091567;28;20032;-70
2022/06/11 06:56:55;;;;;;;7.32;3.47;;;;;;;;;;5091882;28;20125;-74
2022/06/11 06:59:22;;;;;;;7.88;3.35;;;;;;;;;;5090899;28;20470;-73
2022/06/11 07:01:48;;;;;;;17.58;4.03;;;;;;;;;;5091964;28;20040;-77
2022/06/11 07:04:14;;;;;;;11.02;3.55;;;;;;;;;;5091985;28;20363;-77
2022/06/11 07:06:40;;;;;;;10.60;3.90;;;;;;;;;;5091637;28;20054;-74
2022/06/11 07:09:07;;;;;;;12.38;4.32;;;;;;;;;;5091953;28;20521;-74
2022/06/11 07:11:33;;;;;;;7.28;3.28;;;;;;;;;;5095510;28;20036;-75
2022/06/11 07:13:59;;;;;;;14.48;4.35;;;;;;;;;;5093447;28;20017;-73
2022/06/11 07:16:38;;;;;;;10.52;3.67;;;;;;;;;;5086290;28;20036;-75
2022/06/11 07:19:30;;;;;;;11.10;3.70;;;;;;;;;;5084038;28;20555;-76
2022/06/11 07:22:02;;;;;;;14.73;2.80;;;;;;;;;;5094881;28;20067;-73
2022/06/11 07:24:31;;;;;;;10.38;2.97;;;;;;;;;;5090763;28;20028;-70
2022/06/11 07:27:01;;;;;;;7.72;2.80;;;;;;;;;;5090997;28;20103;-77
2022/06/11 07:29:44;;;;;;;9.60;2.78;;;;;;;;;;5095052;28;20042;-74
2022/06/11 07:32:13;;;;;;;5.22;2.40;;;;;;;;;;5092501;28;20039;-77
2022/06/11 07:34:40;;;;;;;5.80;2.72;;;;;;;;;;5093214;28;20463;-73
2022/06/11 07:37:06;;;;;;;5.75;2.60;;;;;;;;;;5091377;28;20040;-77
2022/06/11 07:39:33;;;;;;;5.28;2.38;;;;;;;;;;5086546;28;20020;-76
2022/06/11 07:41:58;;;;;;;5.60;2.00;;;;;;;;;;5086919;28;20024;-71
2022/06/11 07:44:24;;;;;;;7.78;2.45;;;;;;;;;;5074778;28;20037;-75
2022/06/11 07:46:50;;;;;;;4.78;2.47;;;;;;;;;;5074319;28;20068;-70
2022/06/11 07:49:16;;;;;;;5.95;2.47;;;;;;;;;;5080530;28;20541;-69
2022/06/11 07:51:42;;;;;;;2.90;2.20;;;;;;;;;;5096600;28;20074;-69
2022/06/11 07:54:08;;;;;;;8.15;3.00;;;;;;;;;;5098501;28;20028;-69
2022/06/11 07:56:33;;;;;;;6.57;3.15;;;;;;;;;;5094771;28;20327;-69
2022/06/11 07:58:59;;;;;;;5.70;2.92;;;;;;;;;;5094800;28;20028;-70
2022/06/11 08:01:25;;;;;;;4.35;2.53;;;;;;;;;;5093408;28;20028;-71
2022/06/11 08:03:51;;;;;;;9.00;2.90;;;;;;;;;;5088623;28;20036;-69
2022/06/11 08:06:17;;;;;;;3.95;2.50;;;;;;;;;;5083439;28;20045;-71
2022/06/11 08:08:45;;;;;;;6.22;3.20;;;;;;;;;;5073897;28;20098;-70
2022/06/11 08:11:11;;;;;;;7.57;3.10;;;;;;;;;;5072461;28;20494;-70
2022/06/11 08:13:37;;;;;;;7.85;3.17;;;;;;;;;;5073842;28;20103;-70
2022/06/11 08:16:03;;;;;;;3.97;2.67;;;;;;;;;;5073976;28;20119;-69
2022/06/11 08:18:31;;;;;;;6.05;3.08;;;;;;;;;;5080296;28;20024;-69
2022/06/11 08:20:57;;;;;;;9.77;3.03;;;;;;;;;;5093648;28;20048;-69
2022/06/11 08:23:24;;;;;;;11.10;3.30;;;;;;;;;;5094175;28;20024;-70
2022/06/11 08:25:51;;;;;;;6.80;2.35;;;;;;;;;;5094078;28;20047;-70
2022/06/11 08:28:17;;;;;;;4.28;2.50;;;;;;;;;;5093991;28;20501;-70
2022/06/11 08:30:45;;;;;;;8.52;2.65;;;;;;;;;;5094251;28;20036;-71
2022/06/11 08:33:11;;;;;;;8.52;2.55;;;;;;;;;;5094248;28;20131;-68
2022/06/11 08:35:38;;;;;;;6.82;2.53;;;;;;;;;;5093972;28;20111;-68
2022/06/11 08:38:05;;;;;;;12.73;3.55;;;;;;;;;;5094176;28;20020;-71
2022/06/11 08:40:38;;;;;;;10.88;2.72;;;;;;;;;;5094082;28;20074;-72
2022/06/11 08:43:22;;;;;;;5.40;2.50;;;;;;;;;;5087760;28;20339;-74
2022/06/11 08:46:09;;;;;;;4.53;2.30;;;;;;;;;;5076568;28;20033;-73
2022/06/11 08:48:50;;;;;;;10.13;2.17;;;;;;;;;;5072197;28;20108;-70
2022/06/11 08:51:40;;;;;;;6.03;1.80;;;;;;;;;;5073546;28;20115;-76
2022/06/11 08:54:12;;;;;;;4.30;1.75;;;;;;;;;;5075790;28;20035;-72
2022/06/11 08:57:01;;;;;;;6.65;1.60;;;;;;;;;;5083456;28;20124;-70
2022/06/11 08:59:40;;;;;;;6.47;3.15;;;;;;;;;;5070451;28;20040;-70
2022/06/11 09:02:24;;;;;;;5.45;2.40;;;;;;;;;;5086188;28;20062;-70
2022/06/11 09:05:17;;;;;;;6.00;1.92;;;;;;;;;;5080179;28;20036;-70
2022/06/11 09:07:54;;;;;;;5.75;1.85;;;;;;;;;;5085896;28;20098;-70
2022/06/11 09:10:41;;;;;;;3.97;1.70;;;;;;;;;;5091184;28;20036;-69
2022/06/11 09:13:28;;;;;;;8.00;2.20;;;;;;;;;;5085013;28;20036;-74
2022/06/11 09:16:08;;;;;;;3.45;1.75;;;;;;;;;;5072936;28;20055;-68
2022/06/11 09:18:42;;;;;;;4.45;1.73;;;;;;;;;;5073060;28;20060;-68
2022/06/11 09:21:21;;;;;;;4.97;1.75;;;;;;;;;;5072526;28;20040;-69
2022/06/11 09:23:58;;;;;;;3.47;1.52;;;;;;;;;;5086702;28;20142;-70
2022/06/11 09:26:47;;;;;;;5.30;2.05;;;;;;;;;;5091846;28;20040;-67
2022/06/11 09:29:40;;;;;;;4.68;2.38;;;;;;;;;;5085624;28;20043;-68
2022/06/11 09:32:24;;;;;;;5.75;2.05;;;;;;;;;;5090167;28;20032;-68
2022/06/11 09:34:53;;;;;;;4.20;1.65;;;;;;;;;;5093136;28;20028;-67
2022/06/11 09:37:47;;;;;;;6.18;1.95;;;;;;;;;;5089097;28;20095;-69
2022/06/11 09:40:49;;;;;;;5.80;2.35;;;;;;;;;;5088445;28;20063;-70
2022/06/11 09:43:27;;;;;;;5.13;2.33;;;;;;;;;;5092640;28;20075;-68
2022/06/11 09:46:19;;;;;;;4.75;2.00;;;;;;;;;;5095920;28;20036;-70
2022/06/11 09:48:50;;;;;;;4.57;1.75;;;;;;;;;;5092795;28;20028;-68
2022/06/11 09:51:35;;;;;;;2.92;1.80;;;;;;;;;;5092391;28;20115;-68
2022/06/11 09:54:16;;;;;;;4.28;2.00;;;;;;;;;;5092533;28;20475;-69
2022/06/11 09:57:06;;;;;;;5.32;1.83;;;;;;;;;;5092941;28;20537;-69
2022/06/11 09:59:36;;;;;;;5.50;2.00;;;;;;;;;;5092599;28;20119;-68
2022/06/11 10:02:18;;;;;;;3.70;2.47;;;;;;;;;;5092502;28;20028;-69
2022/06/11 10:04:46;;;;;;;3.97;2.00;;;;;;;;;;5092437;28;20032;-70
2022/06/11 10:07:20;;;;;;;4.05;2.03;;;;;;;;;;5091360;28;20119;-68
2022/06/11 10:09:58;;;;;;;3.30;2.08;;;;;;;;;;5092049;28;20112;-72
2022/06/11 10:12:44;;;;;;;4.85;2.40;;;;;;;;;;5091129;28;20036;-70
2022/06/11 10:15:13;;;;;;;3.72;1.98;;;;;;;;;;5090475;28;20039;-69
2022/06/11 10:17:49;;;;;;;2.30;1.70;;;;;;;;;;5093080;28;20588;-71
2022/06/11 10:20:24;;;;;;;3.85;1.60;;;;;;;;;;5092471;28;20108;-71
2022/06/11 10:23:16;;;;;;;3.67;1.92;;;;;;;;;;5091188;28;20044;-71
2022/06/11 10:26:17;;;;;;;3.03;1.60;;;;;;;;;;5076464;28;20051;-76
2022/06/11 10:29:01;;;;;;;2.72;1.73;;;;;;;;;;5083326;28;20044;-75
2022/06/11 10:31:50;;;;;;;5.70;1.95;;;;;;;;;;5092317;28;20182;-75
2022/06/11 10:34:25;;;;;;;2.92;1.77;;;;;;;;;;5092656;28;20036;-71
2022/06/11 10:37:12;;;;;;;3.75;1.42;;;;;;;;;;5092141;28;20137;-74
2022/06/11 10:39:49;;;;;;;3.97;1.15;;;;;;;;;;5092660;28;20108;-73
2022/06/11 10:42:37;;;;;;;3.85;1.38;;;;;;;;;;5092457;28;20032;-71
2022/06/11 10:45:04;;;;;;;1.95;1.50;;;;;;;;;;5093820;28;20066;-73
2022/06/11 10:47:36;;;;;;;3.83;1.63;;;;;;;;;;5096488;28;20031;-70
2022/06/11 10:50:11;;;;;;;6.63;1.80;;;;;;;;;;5096443;28;20089;-71
2022/06/11 10:53:02;;;;;;;5.18;1.63;;;;;;;;;;5096073;28;20032;-70
2022/06/11 10:55:50;;;;;;;5.57;3.00;;;;;;;;;;5096306;28;20518;-71
2022/06/11 10:58:25;;;;;;;3.80;1.63;;;;;;;;;;5096410;28;20024;-71
2022/06/11 11:01:01;;;;;;;2.70;1.50;;;;;;;;;;5096441;28;20024;-70
2022/06/11 11:03:43;;;;;;;8.95;1.90;;;;;;;;;;5096547;28;20036;-70
2022/06/11 11:06:22;;;;;;;6.77;1.50;;;;;;;;;;5095981;28;20123;-70
2022/06/11 11:08:57;;;;;;;5.25;1.60;;;;;;;;;;5096269;28;20032;-68
2022/06/11 11:11:25;;;;;;;4.47;1.77;;;;;;;;;;5096070;28;20085;-69
2022/06/11 11:13:58;;;;;;;3.83;1.50;;;;;;;;;;5096129;28;20027;-70
2022/06/11 11:16:30;;;;;;;3.65;1.40;;;;;;;;;;5095968;28;20455;-69
2022/06/11 11:19:04;;;;;;;1.65;1.15;;;;;;;;;;5096160;28;20545;-73
2022/06/11 11:21:37;;;;;;;3.05;1.30;;;;;;;;;;5095755;28;20044;-73
2022/06/11 11:24:13;;;;;;;2.42;1.30;;;;;;;;;;5095858;28;20063;-70
2022/06/11 11:26:53;;;;;;;1.58;0.98;;;;;;;;;;5095842;28;20467;-70
2022/06/11 11:29:28;;;;;;;4.00;1.33;;;;;;;;;;5095930;28;20372;-70
2022/06/11 11:31:58;;;;;;;0.93;0.85;;;;;;;;;;5095987;28;20047;-70
2022/06/11 11:34:30;;;;;;;2.17;1.17;;;;;;;;;;5089527;28;20025;-71
2022/06/11 11:37:12;;;;;;;1.10;1.00;;;;;;;;;;5083030;28;20115;-72
2022/06/11 11:39:38;;;;;;;3.47;1.00;;;;;;;;;;5075538;28;20280;-72
2022/06/11 11:42:07;;;;;;;2.50;1.02;;;;;;;;;;5075174;28;20470;-74
2022/06/11 11:44:50;;;;;;;3.15;0.90;;;;;;;;;;5075101;28;20052;-72
2022/06/11 11:47:21;;;;;;;1.57;1.00;;;;;;;;;;5074223;28;20519;-76
2022/06/11 11:49:53;;;;;;;1.75;0.88;;;;;;;;;;5075399;28;20760;-73
2022/06/11 11:52:22;;;;;;;1.37;0.90;;;;;;;;;;5077949;28;20032;-73
2022/06/11 11:54:54;;;;;;;1.92;1.20;;;;;;;;;;5095118;28;20485;-74
2022/06/11 11:57:20;;;;;;;1.27;0.80;;;;;;;;;;5094947;28;20039;-74
2022/06/11 11:59:52;;;;;;;1.85;1.13;;;;;;;;;;5095148;28;20433;-73
2022/06/11 12:02:45;;;;;;;1.83;0.88;;;;;;;;;;5094502;28;20048;-74
2022/06/11 12:05:46;;;;;;;1.33;1.00;;;;;;;;;;5090153;28;20119;-75
2022/06/11 12:08:31;;;;;;;2.13;1.13;;;;;;;;;;5094561;28;20308;-74
2022/06/11 12:11:01;;;;;;;5.90;1.30;;;;;;;;;;5094705;28;20036;-70
2022/06/11 12:13:43;;;;;;;2.13;1.05;;;;;;;;;;5094495;28;20208;-72
2022/06/11 12:16:17;;;;;;;2.25;1.63;;;;;;;;;;5094789;28;20092;-75
2022/06/11 12:18:49;;;;;;;2.50;1.58;;;;;;;;;;5094797;28;20062;-76
2022/06/11 12:21:27;;;;;;;5.45;1.40;;;;;;;;;;5094519;28;20044;-75
2022/06/11 12:24:14;;;;;;;2.05;1.20;;;;;;;;;;5094107;28;20115;-75
2022/06/11 12:26:46;;;;;;;1.42;1.00;;;;;;;;;;5094123;28;20097;-75
2022/06/11 12:29:39;;;;;;;4.10;1.10;;;;;;;;;;5093878;28;20502;-76
2022/06/11 12:32:24;;;;;;;3.33;1.65;;;;;;;;;;5093933;28;20044;-75
2022/06/11 12:34:53;;;;;;;1.60;1.23;;;;;;;;;;5094432;28;20050;-74
2022/06/11 12:37:37;;;;;;;2.10;1.40;;;;;;;;;;5094127;28;20450;-73
2022/06/11 12:40:40;;;;;;;2.05;1.20;;;;;;;;;;5094078;28;20028;-76
2022/06/11 12:43:15;;;;;;;2.15;1.40;;;;;;;;;;5094127;28;20439;-75
2022/06/11 12:45:53;;;;;;;3.28;1.30;;;;;;;;;;5094004;28;20024;-74
2022/06/11 12:48:43;;;;;;;3.88;1.30;;;;;;;;;;5094961;28;20035;-74
2022/06/11 12:51:36;;;;;;;1.88;1.10;;;;;;;;;;5093849;28;20028;-75
2022/06/11 12:54:12;;;;;;;2.50;1.10;;;;;;;;;;5093967;28;20032;-77
2022/06/11 12:56:43;;;;;;;5.13;1.40;;;;;;;;;;5093877;28;20284;-72
2022/06/11 12:59:26;;;;;;;4.05;1.33;;;;;;;;;;5093942;28;20379;-73
2022/06/11 13:02:14;;;;;;;3.53;1.52;;;;;;;;;;5093473;28;20040;-73
2022/06/11 13:05:01;;;;;;;3.40;1.48;;;;;;;;;;5093521;28;20024;-78
2022/06/11 13:07:56;;;;;;;4.38;1.65;;;;;;;;;;5092991;28;20039;-74
2022/06/11 13:10:40;;;;;;;6.45;1.70;;;;;;;;;;5093672;28;20500;-70
2022/06/11 13:13:24;;;;;;;6.45;1.70;;;;;;;;;;5093633;28;20028;-72
2022/06/11 13:15:50;;;;;;;2.92;1.60;;;;;;;;;;5093686;28;20035;-76
2022/06/11 13:18:19;;;;;;;3.80;2.22;;;;;;;;;;5093563;28;20027;-72
2022/06/11 13:21:11;;;;;;;5.68;1.88;;;;;;;;;;5092342;28;20097;-76
2022/06/11 13:23:52;;;;;;;6.28;1.73;;;;;;;;;;5088906;28;20047;-73
2022/06/11 13:26:55;;;;;;;9.32;2.10;;;;;;;;;;5093681;28;20119;-73
2022/06/11 13:29:43;;;;;;;4.88;1.58;;;;;;;;;;5093819;28;20032;-74
2022/06/11 13:32:30;;;;;;;2.50;1.75;;;;;;;;;;5093503;28;20040;-77
2022/06/11 13:35:06;;;;;;;2.83;1.85;;;;;;;;;;5093792;28;20114;-71
2022/06/11 13:37:51;;;;;;;5.72;1.90;;;;;;;;;;5093559;28;20043;-73
2022/06/11 13:40:20;;;;;;;2.13;1.77;;;;;;;;;;5093576;28;20028;-72
2022/06/11 13:43:03;;;;;;;2.80;1.70;;;;;;;;;;5092448;28;20024;-78
2022/06/11 13:45:34;;;;;;;;;;;;;;;;;;5092726;28;20114;-71
2022/06/11 13:48:07;;;;;;;7.10;4.53;;;;;;;;;;5092655;28;19970;-73
2022/06/11 13:50:42;;;;;;;2.00;1.70;;;;;;;;;;5092458;28;20032;-76
2022/06/11 13:56:14;;;;;;;4.38;2.00;;;;;;;;;;5093114;28;20042;-74
2022/06/11 13:58:51;;;;;;;4.55;2.22;;;;;;;;;;5092987;28;20028;-75
2022/06/11 14:01:46;;;;;;;4.07;2.50;;;;;;;;;;5093058;28;20032;-77
2022/06/11 14:04:14;;;;;;;3.22;2.13;;;;;;;;;;5093150;28;20071;-72
2022/06/11 14:06:42;;;;;;;5.88;2.25;;;;;;;;;;5093148;28;20053;-75
2022/06/11 14:12:03;;;;;;;2.58;2.05;;;;;;;;;;5092910;28;20444;-71
2022/06/11 14:14:40;;;;;;;3.35;2.10;;;;;;;;;;5093642;28;20020;-74
2022/06/11 14:17:43;;;;;;;3.40;2.10;;;;;;;;;;5090127;28;20031;-75
2022/06/11 14:20:26;;;;;;;7.72;2.25;;;;;;;;;;5092228;28;20024;-71
2022/06/11 14:23:05;;;;;;;2.83;2.40;;;;;;;;;;5092124;28;20564;-73
2022/06/11 14:25:42;;;;;;;4.28;2.35;;;;;;;;;;5092240;28;20032;-74
2022/06/11 14:28:14;;;;;;;3.88;2.20;;;;;;;;;;5092525;28;20055;-71
2022/06/11 14:30:47;;;;;;;3.55;2.40;;;;;;;;;;5092299;28;20027;-73
2022/06/11 14:33:13;;;;;;;3.83;2.00;;;;;;;;;;5092002;28;20040;-70
2022/06/11 14:35:48;;;;;;;4.03;2.03;;;;;;;;;;5092395;28;20016;-72
2022/06/11 14:38:29;;;;;;;2.58;2.00;;;;;;;;;;5092396;28;20447;-71
2022/06/11 14:41:07;;;;;;;4.95;2.30;;;;;;;;;;5092213;28;20062;-72
2022/06/11 14:43:54;;;;;;;3.35;1.90;;;;;;;;;;5092158;28;20059;-77
2022/06/11 14:46:42;;;;;;;7.05;2.00;;;;;;;;;;5092250;28;20494;-73
2022/06/11 14:49:23;;;;;;;2.72;1.70;;;;;;;;;;5092166;28;20020;-70
2022/06/11 14:52:08;;;;;;;4.57;1.98;;;;;;;;;;5092129;28;20036;-75
2022/06/11 14:54:40;;;;;;;2.72;1.80;;;;;;;;;;5092113;28;20032;-74
2022/06/11 14:57:39;;;;;;;2.60;1.70;;;;;;;;;;5092067;28;20605;-73
2022/06/11 15:00:13;;;;;;;2.92;1.83;;;;;;;;;;5091852;28;20466;-74
2022/06/11 15:03:14;;;;;;;3.13;2.00;;;;;;;;;;5090941;28;20060;-71
2022/06/11 15:05:43;;;;;;;5.50;2.10;;;;;;;;;;5090885;28;20046;-72
2022/06/11 15:08:27;;;;;;;3.28;1.65;;;;;;;;;;5090802;28;20024;-71
2022/06/11 15:11:07;;;;;;;2.33;2.05;;;;;;;;;;5091997;28;20115;-74
2022/06/11 15:13:41;;;;;;;6.05;2.13;;;;;;;;;;5091777;28;20118;-74
2022/06/11 15:16:27;;;;;;;2.58;1.88;;;;;;;;;;5092194;28;20024;-74
2022/06/11 15:18:59;;;;;;;3.15;2.17;;;;;;;;;;5092214;28;20042;-71
2022/06/11 15:21:28;;;;;;;3.97;2.22;;;;;;;;;;5092025;28;20375;-71
2022/06/11 15:23:59;;;;;;;2.90;1.80;;;;;;;;;;5091985;28;20045;-70
2022/06/11 15:26:27;;;;;;;2.75;1.83;;;;;;;;;;5092293;28;20422;-72
2022/06/11 15:29:06;;;;;;;2.88;1.70;;;;;;;;;;5091958;28;20024;-71